createdAt,value
2018-09-01T00:00:48.394Z,11.37
2018-09-01T00:03:25.477Z,9.67
2018-09-01T00:06:03.373Z,12.20
2018-09-01T00:25:55.516Z,15.57
2018-09-01T00:46:06.499Z,17.30
2018-09-01T00:51:11.445Z,15.97
2018-09-01T01:11:09.322Z,18.07
2018-09-01T01:13:45.373Z,14.33
2018-09-01T01:36:28.521Z,15.57
2018-09-01T01:39:04.583Z,16.00
2018-09-01T01:58:56.999Z,17.80
2018-09-01T02:01:32.580Z,18.70
2018-09-01T02:04:07.201Z,18.13
2018-09-01T02:06:41.616Z,17.83
2018-09-01T02:09:23.009Z,16.77
2018-09-01T02:29:15.962Z,19.80
2018-09-01T02:31:53.502Z,18.97
2018-09-01T02:34:29.726Z,18.30
2018-09-01T02:37:05.012Z,18.87
2018-09-01T02:39:42.023Z,18.53
2018-09-01T02:59:35.616Z,19.40
2018-09-01T03:02:12.691Z,22.47
2018-09-01T03:04:50.596Z,24.93
2018-09-01T03:07:26.852Z,21.80
2018-09-01T03:10:03.523Z,19.10
2018-09-01T03:12:40.034Z,23.57
2018-09-01T03:15:15.844Z,28.30
2018-09-01T03:35:09.825Z,24.67
2018-09-01T03:37:46.703Z,30.53
2018-09-01T03:40:25.628Z,26.20
2018-09-01T04:06:01.835Z,30.20
2018-09-01T04:08:36.663Z,23.67
2018-09-01T04:11:11.726Z,24.47
2018-09-01T04:16:27.498Z,27.07
2018-09-01T04:19:06.626Z,23.03
2018-09-01T04:21:42.684Z,25.23
2018-09-01T04:24:17.515Z,21.23
2018-09-01T04:26:56.643Z,26.73
2018-09-01T04:29:31.678Z,24.60
2018-09-01T04:32:08.800Z,22.83
2018-09-01T04:34:45.636Z,23.13
2018-09-01T04:54:37.776Z,23.73
2018-09-01T04:57:13.627Z,27.37
2018-09-01T05:17:08.636Z,25.63
2018-09-01T05:19:47.181Z,20.13
2018-09-01T05:22:25.184Z,17.43
2018-09-01T05:59:38.799Z,18.33
2018-09-01T06:02:17.729Z,18.73
2018-09-01T06:04:54.810Z,21.87
2018-09-01T06:24:48.841Z,21.23
2018-09-01T06:27:32.842Z,18.60
2018-09-01T06:47:31.434Z,26.73
2018-09-01T06:50:07.797Z,25.23
2018-09-01T06:52:47.746Z,23.97
2018-09-01T07:12:43.567Z,24.37
2018-09-01T07:15:25.185Z,23.90
2018-09-01T07:43:58.307Z,24.77
2018-09-01T07:46:36.326Z,28.03
2018-09-01T08:06:33.877Z,22.23
2018-09-01T08:09:14.851Z,27.53
2018-09-01T08:29:08.839Z,24.37
2018-09-01T08:31:46.935Z,27.97
2018-09-01T08:34:23.616Z,25.87
2018-09-01T08:54:16.989Z,23.40
2018-09-01T08:56:53.855Z,27.83
2018-09-01T09:31:20.897Z,21.10
2018-09-01T09:54:10.197Z,23.50
2018-09-01T09:56:47.076Z,21.87
2018-09-01T09:59:24.155Z,28.80
2018-09-01T10:02:07.176Z,17.87
2018-09-01T10:04:52.801Z,17.87
2018-09-01T10:24:47.454Z,18.40
2018-09-01T10:27:30.269Z,16.57
2018-09-01T10:47:31.215Z,16.27
2018-09-01T10:50:06.045Z,19.60
2018-09-01T10:52:42.513Z,13.47
2018-09-01T10:55:21.232Z,16.27
2018-09-01T10:58:01.184Z,17.93
2018-09-01T11:00:36.217Z,17.70
2018-09-01T11:03:11.246Z,15.37
2018-09-01T11:23:02.745Z,13.80
2018-09-01T11:25:38.625Z,16.93
2018-09-01T12:05:42.362Z,22.93
2018-09-01T12:08:17.777Z,17.77
2018-09-01T12:11:04.721Z,19.63
2018-09-01T12:25:21.602Z,17.83
2018-09-01T12:28:03.187Z,17.87
2018-09-01T13:05:17.352Z,8.07
2018-09-01T13:07:54.465Z,8.97
2018-09-01T13:10:36.242Z,6.77
2018-09-01T13:13:12.078Z,10.20
2018-09-01T13:15:52.234Z,10.77
2018-09-01T13:18:34.652Z,6.27
2018-09-01T13:21:17.927Z,10.67
2018-09-01T13:23:54.533Z,6.37
2018-09-01T13:26:30.387Z,10.43
2018-09-01T13:29:08.286Z,12.00
2018-09-01T13:31:45.164Z,8.23
2018-09-01T13:34:28.445Z,9.57
2018-09-01T13:37:15.306Z,7.17
2018-09-01T13:39:55.502Z,15.10
2018-09-01T13:42:36.429Z,8.13
2018-09-01T13:45:16.377Z,11.43
2018-09-01T13:47:54.485Z,12.03
2018-09-01T13:50:36.639Z,12.37
2018-09-01T13:53:19.503Z,8.37
2018-09-01T13:56:00.493Z,10.47
2018-09-01T13:58:42.479Z,14.03
2018-09-01T14:01:25.502Z,9.33
2018-09-01T14:35:42.994Z,11.17
2018-09-01T14:38:18.553Z,14.23
2018-09-01T15:12:43.556Z,10.63
2018-09-01T15:15:24.323Z,10.73
2018-09-01T15:18:00.380Z,12.40
2018-09-01T15:40:42.507Z,12.70
2018-09-01T15:43:19.583Z,16.37
2018-09-01T16:20:29.458Z,9.67
2018-09-01T16:23:04.481Z,10.70
2018-09-01T16:25:44.844Z,9.20
2018-09-01T16:28:20.487Z,9.87
2018-09-01T16:30:56.750Z,13.97
2018-09-01T16:33:31.578Z,13.33
2018-09-01T16:36:12.348Z,17.93
2018-09-01T16:38:51.892Z,13.40
2018-09-01T16:41:26.512Z,9.03
2018-09-01T17:01:31.762Z,8.50
2018-09-01T17:04:06.589Z,11.50
2018-09-01T17:06:46.540Z,10.10
2018-09-01T17:09:26.486Z,11.53
2018-09-01T17:12:10.526Z,9.33
2018-09-01T17:37:52.670Z,12.33
2018-09-01T17:40:28.058Z,19.10
2018-09-01T17:43:04.578Z,16.80
2018-09-01T17:45:45.557Z,15.83
2018-09-01T17:48:22.449Z,14.57
2018-09-01T17:51:04.028Z,17.20
2018-09-01T17:53:39.050Z,17.87
2018-09-01T17:56:14.697Z,18.00
2018-09-01T17:59:12.055Z,19.23
2018-09-01T18:22:14.049Z,13.53
2018-09-01T18:39:22.555Z,17.50
2018-09-01T18:43:01.685Z,14.37
2018-09-01T18:45:37.949Z,14.77
2018-09-01T19:02:37.647Z,7.40
2018-09-01T19:13:56.779Z,10.30
2018-09-01T19:16:32.619Z,11.80
2018-09-01T19:36:41.777Z,10.97
2018-09-01T19:39:18.641Z,9.93
2018-09-01T19:59:17.741Z,15.33
2018-09-01T20:01:57.487Z,13.93
2018-09-01T20:21:51.667Z,14.57
2018-09-01T20:24:29.781Z,15.07
2018-09-01T20:27:06.161Z,13.37
2018-09-01T21:01:23.659Z,10.97
2018-09-01T21:09:43.783Z,15.57
2018-09-01T21:12:20.658Z,15.30
2018-09-01T21:23:35.678Z,10.20
2018-09-01T21:43:31.916Z,10.43
2018-09-01T21:46:07.767Z,12.60
2018-09-01T21:48:42.815Z,11.70
2018-09-01T21:51:19.675Z,16.57
2018-09-01T21:53:55.218Z,11.53
2018-09-01T22:31:08.667Z,11.50
2018-09-01T22:33:42.677Z,9.10
2018-09-01T22:36:18.734Z,7.67
2018-09-01T22:38:54.791Z,7.40
2018-09-01T22:41:31.876Z,8.70
2018-09-01T22:44:07.728Z,6.63
2018-09-01T22:46:43.785Z,8.03
2018-09-01T22:49:18.816Z,9.97
2018-09-01T22:51:53.029Z,7.67
2018-09-01T22:54:30.113Z,7.23
2018-09-01T22:57:08.220Z,8.87
2018-09-01T22:59:44.286Z,8.43
2018-09-01T23:02:21.359Z,5.97
2018-09-01T23:05:03.151Z,7.77
2018-09-01T23:07:38.187Z,12.17
2018-09-01T23:10:14.045Z,8.80
2018-09-01T23:12:50.306Z,11.27
2018-09-01T23:15:26.149Z,7.93
2018-09-01T23:18:01.595Z,9.20
2018-09-01T23:20:37.240Z,7.47
2018-09-01T23:23:12.274Z,7.40
2018-09-01T23:25:49.157Z,7.67
2018-09-01T23:28:24.185Z,7.17
2018-09-01T23:30:59.759Z,10.03
2018-09-01T23:33:34.347Z,6.40
2018-09-01T23:36:09.284Z,6.37
2018-09-01T23:38:45.347Z,5.63
2018-09-01T23:41:22.219Z,7.83
2018-09-01T23:43:57.255Z,5.90
2018-09-01T23:46:32.288Z,5.83
